Time;durP1;ratioP1;P1;durP2;ratioP2;P2;SDS_P1;SDS_P2;PMS_P1;PMS_P2;Temp;Humidity;BMP_temperature;BMP_pressure;BME280_temperature;BME280_humidity;BME280_pressure;Samples;Min_cycle;Max_cycle;Signal;HPM_P1;HPM_P2
2021/09/30 00:00:09;;;;;;;0.90;0.90;;;10.00;99.90;;;;;;5093349;28;20412;-71
2021/09/30 00:02:41;;;;;;;1.13;1.03;;;9.90;99.90;;;;;;5093317;28;20163;-70
2021/09/30 00:05:11;;;;;;;1.10;1.00;;;9.90;99.90;;;;;;5093236;28;20428;-70
2021/09/30 00:07:37;;;;;;;0.80;0.80;;;9.90;99.90;;;;;;5093365;28;20411;-70
2021/09/30 00:10:11;;;;;;;1.03;1.03;;;9.80;99.90;;;;;;5093122;28;20423;-70
2021/09/30 00:12:42;;;;;;;2.67;1.00;;;9.70;99.90;;;;;;5093225;28;20912;-70
2021/09/30 00:15:11;;;;;;;0.90;0.90;;;9.70;99.90;;;;;;5093216;28;20445;-70
2021/09/30 00:18:08;;;;;;;1.10;0.97;;;9.70;99.90;;;;;;5091920;28;20436;-71
2021/09/30 00:34:22;;;;;;;0.93;0.90;;;9.70;99.90;;;;;;5092911;28;20450;-70
2021/09/30 00:50:21;;;;;;;0.90;0.90;;;9.60;99.90;;;;;;5092586;28;20403;-70
2021/09/30 00:52:59;;;;;;;1.03;0.93;;;9.60;99.90;;;;;;5092639;28;20418;-70
2021/09/30 01:21:53;;;;;;;0.83;0.83;;;9.50;99.90;;;;;;5091966;28;20402;-70
2021/09/30 01:32:18;;;;;;;1.30;1.20;;;9.40;99.90;;;;;;5091013;28;20476;-71
2021/09/30 01:46:29;;;;;;;0.93;0.93;;;9.40;99.90;;;;;;5091946;28;20418;-70
2021/09/30 01:52:09;;;;;;;0.90;0.90;;;9.40;99.90;;;;;;5091933;28;20421;-70
2021/09/30 02:19:57;;;;;;;1.10;1.10;;;9.20;99.90;;;;;;5091499;28;20526;-71
2021/09/30 02:30:26;;;;;;;1.10;1.00;;;9.20;99.90;;;;;;5091519;28;20996;-70
2021/09/30 03:00:31;;;;;;;0.80;0.80;;;9.00;99.90;;;;;;5095006;28;20927;-70
2021/09/30 03:03:00;;;;;;;1.33;0.90;;;9.10;99.90;;;;;;5093414;28;20403;-70
2021/09/30 03:05:29;;;;;;;1.63;1.20;;;9.10;99.90;;;;;;5094252;28;20427;-70
2021/09/30 03:07:58;;;;;;;1.07;0.97;;;9.10;99.90;;;;;;5093158;28;20957;-70
2021/09/30 03:10:25;;;;;;;1.27;1.17;;;9.10;99.90;;;;;;5094488;28;20806;-70
2021/09/30 03:12:53;;;;;;;1.53;1.20;;;9.10;99.90;;;;;;5094743;28;20484;-70
2021/09/30 03:18:00;;;;;;;1.33;1.07;;;9.20;99.90;;;;;;5094404;28;20425;-70
2021/09/30 03:20:41;;;;;;;1.20;1.10;;;9.20;99.90;;;;;;5094501;28;20911;-70
2021/09/30 03:23:22;;;;;;;0.80;0.80;;;9.20;99.90;;;;;;5094303;28;20773;-70
2021/09/30 03:25:54;;;;;;;0.80;0.80;;;9.20;99.90;;;;;;5094278;28;20511;-70
2021/09/30 03:28:25;;;;;;;1.30;1.20;;;9.30;99.90;;;;;;5094223;28;21053;-69
2021/09/30 03:30:54;;;;;;;2.30;1.30;;;9.30;99.90;;;;;;5094183;28;20408;-70
2021/09/30 03:33:23;;;;;;;1.50;1.23;;;9.30;99.90;;;;;;5092721;28;20486;-70
2021/09/30 03:35:50;;;;;;;1.17;0.90;;;9.30;99.90;;;;;;5093370;28;20425;-70
2021/09/30 03:38:16;;;;;;;1.10;1.00;;;9.20;99.90;;;;;;5094278;28;20850;-70
2021/09/30 03:40:42;;;;;;;1.30;1.10;;;9.20;99.90;;;;;;5093959;28;20443;-70
2021/09/30 03:43:09;;;;;;;1.53;1.10;;;9.10;99.90;;;;;;5093928;28;20416;-70
2021/09/30 03:45:35;;;;;;;1.10;1.00;;;9.10;99.90;;;;;;5074742;28;20866;-70
2021/09/30 03:48:01;;;;;;;1.10;1.00;;;9.20;99.90;;;;;;5093609;28;20440;-70
2021/09/30 03:50:34;;;;;;;1.67;1.57;;;9.20;99.90;;;;;;5093739;28;20497;-69
2021/09/30 03:53:12;;;;;;;0.97;0.97;;;9.20;99.90;;;;;;5093825;28;20680;-70
2021/09/30 03:55:58;;;;;;;1.30;0.97;;;9.10;99.90;;;;;;5093634;28;20418;-70
2021/09/30 04:01:08;;;;;;;1.10;1.00;;;9.10;99.90;;;;;;5093770;28;20404;-70
2021/09/30 04:03:51;;;;;;;0.90;0.90;;;9.10;99.90;;;;;;5093477;28;20916;-69
2021/09/30 04:06:17;;;;;;;1.83;0.90;;;9.10;99.90;;;;;;5091839;28;20221;-70
2021/09/30 04:08:46;;;;;;;1.27;1.17;;;9.10;99.90;;;;;;5093173;28;20552;-70
2021/09/30 04:11:14;;;;;;;1.30;0.97;;;9.10;99.90;;;;;;5093354;28;20472;-69
2021/09/30 04:13:39;;;;;;;0.93;0.80;;;9.10;99.90;;;;;;5093440;28;20414;-70
2021/09/30 04:16:05;;;;;;;0.87;0.87;;;9.10;99.90;;;;;;5093225;28;20943;-69
2021/09/30 04:18:34;;;;;;;1.10;1.00;;;9.10;99.90;;;;;;5093397;28;20176;-70
2021/09/30 04:20:59;;;;;;;1.43;1.00;;;9.10;99.90;;;;;;5093129;28;20420;-70
2021/09/30 04:23:25;;;;;;;1.10;1.00;;;9.10;99.90;;;;;;5093032;28;20399;-70
2021/09/30 04:25:50;;;;;;;1.20;1.10;;;9.10;99.90;;;;;;5093127;28;20191;-70
2021/09/30 04:28:19;;;;;;;1.23;1.10;;;9.10;99.90;;;;;;5093318;28;20197;-71
2021/09/30 04:30:45;;;;;;;1.37;1.27;;;9.10;99.90;;;;;;5091792;28;20189;-70
2021/09/30 04:33:10;;;;;;;0.90;0.90;;;9.20;99.90;;;;;;5091647;28;20444;-71
2021/09/30 04:35:36;;;;;;;1.23;1.10;;;9.10;99.90;;;;;;5092784;28;20205;-71
2021/09/30 04:38:01;;;;;;;0.80;0.80;;;9.10;99.90;;;;;;5093221;28;20635;-71
2021/09/30 04:40:27;;;;;;;1.07;1.07;;;9.20;99.90;;;;;;5093417;28;20534;-71
2021/09/30 04:42:52;;;;;;;0.83;0.83;;;9.20;99.90;;;;;;5092889;28;20203;-70
2021/09/30 04:45:18;;;;;;;1.10;1.00;;;9.20;99.90;;;;;;5092629;28;20194;-71
2021/09/30 04:47:43;;;;;;;0.80;0.80;;;9.20;99.90;;;;;;5092929;28;20185;-70
2021/09/30 04:50:10;;;;;;;0.90;0.80;;;9.20;99.90;;;;;;5092535;28;20193;-70
2021/09/30 04:52:39;;;;;;;1.60;1.50;;;9.20;99.90;;;;;;5092478;28;20197;-70
2021/09/30 04:55:07;;;;;;;1.10;1.00;;;9.20;99.90;;;;;;5091266;28;20424;-70
2021/09/30 04:57:32;;;;;;;1.70;1.50;;;9.20;99.90;;;;;;5092563;28;20399;-70
2021/09/30 04:59:58;;;;;;;3.00;0.80;;;9.20;99.90;;;;;;5093126;28;20827;-70
2021/09/30 05:02:23;;;;;;;1.17;1.17;;;9.10;99.90;;;;;;5092799;28;20215;-70
2021/09/30 05:04:49;;;;;;;1.13;1.03;;;9.10;99.90;;;;;;5092027;28;20658;-70
2021/09/30 05:07:14;;;;;;;1.27;1.17;;;9.20;99.90;;;;;;5092296;28;20166;-70
2021/09/30 05:09:40;;;;;;;1.30;1.20;;;9.20;99.90;;;;;;5092271;28;20302;-71
2021/09/30 05:12:08;;;;;;;1.20;0.90;;;9.30;99.90;;;;;;5092304;28;20163;-70
2021/09/30 05:14:33;;;;;;;3.17;1.30;;;9.30;99.90;;;;;;5091977;28;20636;-69
2021/09/30 05:16:59;;;;;;;1.27;1.17;;;9.40;99.90;;;;;;5091162;28;20449;-70
2021/09/30 05:19:25;;;;;;;1.10;0.90;;;9.40;99.90;;;;;;5092020;28;20202;-69
2021/09/30 05:21:50;;;;;;;1.40;1.30;;;9.50;99.90;;;;;;5090680;28;20555;-70
2021/09/30 05:24:16;;;;;;;1.00;0.90;;;9.60;99.90;;;;;;5091931;28;20178;-70
2021/09/30 05:26:42;;;;;;;1.37;1.13;;;9.80;99.90;;;;;;5091877;28;20634;-70
2021/09/30 05:29:08;;;;;;;1.10;1.00;;;9.80;99.90;;;;;;5091863;28;20311;-70
2021/09/30 05:31:34;;;;;;;2.47;1.00;;;10.00;99.90;;;;;;5092185;28;20400;-70
2021/09/30 05:34:00;;;;;;;1.03;1.03;;;10.00;99.90;;;;;;5091628;28;20172;-70
2021/09/30 05:36:26;;;;;;;1.07;0.97;;;10.10;99.90;;;;;;5091954;28;20431;-70
2021/09/30 05:38:57;;;;;;;1.00;0.90;;;10.20;99.90;;;;;;5092079;28;20363;-70
2021/09/30 05:41:24;;;;;;;1.40;1.30;;;10.30;99.90;;;;;;5091766;28;20180;-71
2021/09/30 05:43:53;;;;;;;1.83;1.10;;;10.40;99.90;;;;;;5091877;28;20407;-70
2021/09/30 05:46:29;;;;;;;0.97;0.87;;;10.50;99.90;;;;;;5091898;28;20431;-70
2021/09/30 05:48:55;;;;;;;1.07;0.97;;;10.50;99.90;;;;;;5091662;28;20476;-70
2021/09/30 05:51:42;;;;;;;1.20;0.90;;;10.60;99.90;;;;;;5090639;28;20412;-70
2021/09/30 05:54:07;;;;;;;0.80;0.80;;;10.70;99.90;;;;;;5090810;28;20169;-70
2021/09/30 05:56:33;;;;;;;1.83;1.00;;;10.70;99.90;;;;;;5091885;28;20440;-70
2021/09/30 05:58:58;;;;;;;1.30;1.10;;;10.60;99.90;;;;;;5091567;28;20161;-70
2021/09/30 06:02:25;;;;;;;0.90;0.80;;;10.70;99.90;;;;;;5091797;28;20238;-70
2021/09/30 06:10:13;;;;;;;1.47;1.37;;;10.80;99.90;;;;;;5091558;28;20458;-70
2021/09/30 06:13:10;;;;;;;1.13;0.97;;;10.80;99.90;;;;;;5091747;28;20395;-70
2021/09/30 06:15:39;;;;;;;2.30;1.00;;;10.70;99.90;;;;;;5090858;28;20419;-70
2021/09/30 06:18:08;;;;;;;1.30;1.13;;;10.70;99.90;;;;;;5091541;28;20448;-69
2021/09/30 06:20:37;;;;;;;0.80;0.80;;;10.70;99.90;;;;;;5091440;28;20403;-70
2021/09/30 06:23:02;;;;;;;2.87;0.90;;;10.70;99.90;;;;;;5091544;28;20423;-69
2021/09/30 06:25:28;;;;;;;0.77;0.77;;;10.70;99.90;;;;;;5091255;28;20416;-70
2021/09/30 06:27:57;;;;;;;0.80;0.80;;;10.70;99.90;;;;;;5092753;28;20392;-70
2021/09/30 06:30:25;;;;;;;1.63;1.10;;;10.70;99.90;;;;;;5095285;28;20490;-70
2021/09/30 06:32:52;;;;;;;2.33;1.67;;;10.70;99.90;;;;;;5095120;28;20423;-70
2021/09/30 06:35:18;;;;;;;1.00;0.87;;;10.70;99.90;;;;;;5095181;28;20419;-70
2021/09/30 06:37:43;;;;;;;1.17;1.00;;;10.70;99.90;;;;;;5095178;28;20406;-70
2021/09/30 06:40:09;;;;;;;0.90;0.90;;;10.70;99.90;;;;;;5095063;28;20176;-70
2021/09/30 06:42:37;;;;;;;1.33;1.23;;;10.70;99.90;;;;;;5095092;28;20173;-70
2021/09/30 06:45:10;;;;;;;1.10;1.00;;;10.70;99.90;;;;;;5094777;28;20419;-70
2021/09/30 06:47:37;;;;;;;1.60;1.13;;;10.80;99.90;;;;;;5093768;28;20762;-70
2021/09/30 06:50:06;;;;;;;1.10;1.00;;;10.80;99.90;;;;;;5094758;28;20461;-70
2021/09/30 06:52:31;;;;;;;1.73;0.90;;;10.80;99.90;;;;;;5094783;28;20490;-70
2021/09/30 06:54:57;;;;;;;1.00;0.90;;;10.90;99.90;;;;;;5094586;28;20502;-70
2021/09/30 06:57:27;;;;;;;1.10;0.97;;;10.90;99.90;;;;;;5094932;28;20215;-70
2021/09/30 06:59:53;;;;;;;1.40;1.20;;;10.90;99.90;;;;;;5095177;28;20400;-70
2021/09/30 07:02:22;;;;;;;1.13;0.80;;;11.00;99.90;;;;;;5094719;28;20414;-70
2021/09/30 07:04:48;;;;;;;1.03;0.93;;;11.00;99.90;;;;;;5094459;28;20434;-70
2021/09/30 07:07:16;;;;;;;2.60;1.00;;;11.00;99.90;;;;;;5094610;28;20403;-70
2021/09/30 07:09:45;;;;;;;0.73;0.70;;;11.10;99.90;;;;;;5094607;28;20478;-70
2021/09/30 07:12:12;;;;;;;0.80;0.80;;;11.10;99.90;;;;;;5092973;28;20415;-70
2021/09/30 07:14:38;;;;;;;1.10;1.00;;;11.20;99.90;;;;;;5094342;28;20502;-70
2021/09/30 07:17:04;;;;;;;1.43;0.93;;;11.30;99.90;;;;;;5094306;28;20431;-70
2021/09/30 07:19:32;;;;;;;2.03;0.90;;;11.20;99.90;;;;;;5094630;28;20487;-70
2021/09/30 07:21:58;;;;;;;1.53;1.00;;;11.30;99.90;;;;;;5094498;28;20544;-70
2021/09/30 07:24:24;;;;;;;1.90;1.10;;;11.30;99.90;;;;;;5094390;28;20490;-70
2021/09/30 07:26:49;;;;;;;6.83;1.20;;;11.20;99.90;;;;;;5093730;28;20543;-70
2021/09/30 07:29:14;;;;;;;1.43;0.90;;;11.30;99.90;;;;;;5094411;28;20224;-70
2021/09/30 07:31:40;;;;;;;0.80;0.80;;;11.20;99.90;;;;;;5094364;28;20162;-70
2021/09/30 07:34:12;;;;;;;4.40;0.90;;;11.20;99.90;;;;;;5094021;28;20170;-71
2021/09/30 07:36:42;;;;;;;2.40;1.30;;;11.20;99.90;;;;;;5093966;28;20782;-70
2021/09/30 07:39:34;;;;;;;0.87;0.80;;;11.10;99.90;;;;;;5092985;28;20406;-70
2021/09/30 07:42:00;;;;;;;2.93;1.40;;;11.20;99.90;;;;;;5093068;28;20917;-70
2021/09/30 07:44:32;;;;;;;1.00;0.90;;;11.30;99.90;;;;;;5093725;28;20408;-70
2021/09/30 07:47:02;;;;;;;1.50;1.00;;;11.20;99.90;;;;;;5093795;28;20189;-70
2021/09/30 07:49:28;;;;;;;0.90;0.80;;;11.30;99.90;;;;;;5093597;28;20534;-70
2021/09/30 07:51:53;;;;;;;0.80;0.80;;;11.40;99.90;;;;;;5093696;28;20515;-69
2021/09/30 07:54:21;;;;;;;1.90;1.00;;;11.40;99.90;;;;;;5093599;28;20173;-69
2021/09/30 07:56:46;;;;;;;2.90;1.00;;;11.60;99.90;;;;;;5093629;28;20182;-70
2021/09/30 07:59:12;;;;;;;1.23;1.03;;;11.70;99.90;;;;;;5093550;28;20403;-70
2021/09/30 08:01:43;;;;;;;2.10;1.00;;;11.80;99.90;;;;;;5093782;28;20166;-70
2021/09/30 08:04:09;;;;;;;0.90;0.90;;;11.70;99.90;;;;;;5092335;28;20174;-70
2021/09/30 08:06:38;;;;;;;2.60;1.03;;;11.90;99.90;;;;;;5093405;28;20794;-69
2021/09/30 08:09:03;;;;;;;1.10;0.90;;;11.90;99.90;;;;;;5094103;28;20577;-69
2021/09/30 08:11:31;;;;;;;0.83;0.83;;;11.80;99.90;;;;;;5094115;28;20395;-69
2021/09/30 08:14:00;;;;;;;1.30;1.10;;;11.90;99.90;;;;;;5093795;28;20210;-70
2021/09/30 08:16:29;;;;;;;0.77;0.77;;;12.00;99.90;;;;;;5092001;28;20531;-69
2021/09/30 08:18:55;;;;;;;1.07;1.00;;;12.10;99.90;;;;;;5092207;28;21013;-69
2021/09/30 08:21:22;;;;;;;3.57;0.93;;;12.20;99.90;;;;;;5093635;28;20404;-69
2021/09/30 08:23:51;;;;;;;0.80;0.80;;;12.30;99.90;;;;;;5093408;28;20415;-70
2021/09/30 08:26:19;;;;;;;1.37;1.00;;;12.50;99.90;;;;;;5093513;28;20434;-70
2021/09/30 08:28:49;;;;;;;1.00;0.90;;;12.70;99.90;;;;;;5093078;28;20446;-70
2021/09/30 08:31:15;;;;;;;1.10;1.00;;;12.80;99.90;;;;;;5092881;28;20529;-70
2021/09/30 08:33:43;;;;;;;3.13;0.97;;;13.00;99.90;;;;;;5093124;28;20898;-70
2021/09/30 08:36:12;;;;;;;1.00;0.90;;;13.30;99.90;;;;;;5092964;28;20419;-69
2021/09/30 08:38:39;;;;;;;0.80;0.70;;;13.90;99.90;;;;;;5093005;28;20408;-70
2021/09/30 08:41:06;;;;;;;1.10;0.90;;;14.30;99.90;;;;;;5092804;28;20831;-70
2021/09/30 08:43:31;;;;;;;1.30;0.90;;;14.20;99.90;;;;;;5092665;28;20503;-70
2021/09/30 08:45:57;;;;;;;1.67;0.90;;;14.30;99.90;;;;;;5092649;28;20534;-71
2021/09/30 08:48:24;;;;;;;1.10;1.00;;;13.90;99.90;;;;;;5092817;28;20202;-70
2021/09/30 08:50:49;;;;;;;1.63;0.80;;;14.00;99.90;;;;;;5092920;28;20159;-70
2021/09/30 08:53:17;;;;;;;1.00;0.63;;;13.70;99.90;;;;;;5093499;28;20495;-70
2021/09/30 08:55:42;;;;;;;1.17;0.80;;;13.80;99.90;;;;;;5092843;28;20190;-70
2021/09/30 08:58:08;;;;;;;0.93;0.80;;;14.00;99.90;;;;;;5093011;28;20748;-70
2021/09/30 09:00:38;;;;;;;1.50;1.03;;;14.30;99.90;;;;;;5092692;28;20173;-70
2021/09/30 09:03:04;;;;;;;1.00;0.90;;;14.30;99.90;;;;;;5091148;28;20169;-70
2021/09/30 09:05:29;;;;;;;1.47;1.00;;;14.20;99.90;;;;;;5092587;28;20473;-70
2021/09/30 09:08:02;;;;;;;1.30;0.90;;;13.80;99.90;;;;;;5092560;28;20162;-70
2021/09/30 09:10:31;;;;;;;1.00;0.90;;;13.90;99.90;;;;;;5092368;28;20244;-70
2021/09/30 09:13:14;;;;;;;0.70;0.70;;;14.20;99.90;;;;;;5092202;28;20394;-70
2021/09/30 09:16:00;;;;;;;1.97;1.00;;;14.10;99.90;;;;;;5092176;28;20470;-71
2021/09/30 09:18:32;;;;;;;1.03;0.80;;;14.00;99.90;;;;;;5091365;28;20424;-71
2021/09/30 09:21:23;;;;;;;0.90;0.73;;;13.90;99.90;;;;;;5091776;28;20918;-71
2021/09/30 09:23:49;;;;;;;0.70;0.70;;;14.00;99.90;;;;;;5092962;28;20399;-70
2021/09/30 09:26:16;;;;;;;0.93;0.70;;;13.60;99.90;;;;;;5092794;28;20431;-70
2021/09/30 09:29:02;;;;;;;0.90;0.80;;;13.50;99.90;;;;;;5093435;28;20620;-70
2021/09/30 09:31:38;;;;;;;0.70;0.70;;;13.30;99.90;;;;;;5093342;28;20418;-71
2021/09/30 09:34:35;;;;;;;1.10;0.97;;;13.50;99.90;;;;;;5092685;28;20765;-70
2021/09/30 09:37:19;;;;;;;1.00;0.90;;;13.50;99.90;;;;;;5092534;28;20503;-70
2021/09/30 09:39:44;;;;;;;1.60;0.80;;;13.30;99.90;;;;;;5092322;28;20929;-71
2021/09/30 09:42:18;;;;;;;1.03;0.90;;;13.10;99.90;;;;;;5092564;28;20423;-70
2021/09/30 09:44:58;;;;;;;1.37;1.00;;;12.90;99.90;;;;;;5092766;28;20589;-70
2021/09/30 09:47:44;;;;;;;0.80;0.70;;;13.10;99.90;;;;;;5092650;28;20403;-71
2021/09/30 09:50:20;;;;;;;3.27;0.87;;;13.30;99.90;;;;;;5092705;28;20503;-70
2021/09/30 09:52:55;;;;;;;2.83;1.00;;;13.10;99.90;;;;;;5092797;28;20467;-69
2021/09/30 09:55:25;;;;;;;0.80;0.80;;;13.00;99.90;;;;;;5092195;28;20788;-70
2021/09/30 09:57:58;;;;;;;0.70;0.70;;;13.20;99.90;;;;;;5089914;28;20898;-69
2021/09/30 10:00:23;;;;;;;0.90;0.90;;;13.40;99.90;;;;;;5090184;28;20400;-70
2021/09/30 10:02:51;;;;;;;1.83;0.80;;;13.60;99.90;;;;;;5092817;28;20819;-70
2021/09/30 10:05:20;;;;;;;0.80;0.80;;;13.80;99.90;;;;;;5095917;28;20438;-70
2021/09/30 10:07:49;;;;;;;1.60;0.90;;;14.00;99.90;;;;;;5096147;28;20467;-69
2021/09/30 10:10:15;;;;;;;0.83;0.83;;;14.20;99.90;;;;;;5096226;28;20511;-70
2021/09/30 10:12:43;;;;;;;1.13;0.90;;;14.00;99.90;;;;;;5096103;28;20595;-70
2021/09/30 10:15:11;;;;;;;1.20;1.10;;;14.30;99.90;;;;;;5097574;28;20425;-69
2021/09/30 10:17:36;;;;;;;1.10;1.00;;;14.60;99.90;;;;;;5095914;28;20454;-69
2021/09/30 10:20:03;;;;;;;0.80;0.70;;;14.60;99.90;;;;;;5095842;28;20920;-69
2021/09/30 10:22:29;;;;;;;1.00;0.90;;;14.60;99.90;;;;;;5095681;28;20173;-69
2021/09/30 10:24:56;;;;;;;2.00;0.80;;;14.60;99.90;;;;;;5095311;28;20426;-69
2021/09/30 10:27:22;;;;;;;0.70;0.70;;;14.90;99.90;;;;;;5095320;28;20567;-70
2021/09/30 10:29:48;;;;;;;2.80;0.83;;;15.00;99.90;;;;;;5095793;28;20448;-70
2021/09/30 10:32:17;;;;;;;1.23;1.00;;;14.90;99.90;;;;;;5095684;28;20826;-70
2021/09/30 10:34:45;;;;;;;0.70;0.70;;;15.00;99.90;;;;;;5095169;28;20407;-70
2021/09/30 10:37:31;;;;;;;1.00;0.90;;;15.20;99.90;;;;;;5095071;28;20408;-70
2021/09/30 10:40:21;;;;;;;0.80;0.80;;;15.40;99.90;;;;;;5095143;28;20401;-70
2021/09/30 10:42:53;;;;;;;1.30;0.80;;;15.50;99.90;;;;;;5095206;28;20416;-70
2021/09/30 10:45:21;;;;;;;0.93;0.87;;;15.40;99.90;;;;;;5095105;28;20425;-70
2021/09/30 10:47:48;;;;;;;2.07;1.07;;;15.50;99.90;;;;;;5093654;28;20412;-70
2021/09/30 10:50:14;;;;;;;1.00;0.80;;;15.40;99.90;;;;;;5095180;28;20547;-70
2021/09/30 10:52:54;;;;;;;1.00;1.00;;;15.70;99.90;;;;;;5094953;28;20405;-70
2021/09/30 10:55:22;;;;;;;0.80;0.70;;;15.60;99.90;;;;;;5094977;28;20938;-70
2021/09/30 10:57:50;;;;;;;1.27;1.13;;;15.80;99.90;;;;;;5094814;28;20423;-70
2021/09/30 11:00:18;;;;;;;1.70;1.60;;;15.90;99.90;;;;;;5094730;28;20417;-70
2021/09/30 11:02:59;;;;;;;1.10;1.00;;;16.10;99.90;;;;;;5094663;28;20538;-70
2021/09/30 11:05:26;;;;;;;0.93;0.70;;;16.10;99.90;;;;;;5094312;28;20439;-70
2021/09/30 11:08:17;;;;;;;1.80;0.83;;;16.30;99.90;;;;;;5094851;28;20441;-70
2021/09/30 11:11:08;;;;;;;0.90;0.90;;;16.10;99.90;;;;;;5094561;28;20426;-70
2021/09/30 11:13:56;;;;;;;1.43;0.80;;;16.20;99.90;;;;;;5093898;28;20411;-70
2021/09/30 11:16:37;;;;;;;0.80;0.77;;;16.30;99.90;;;;;;5093949;28;20473;-70
2021/09/30 11:19:03;;;;;;;1.73;0.80;;;16.50;99.90;;;;;;5094412;28;20401;-70
2021/09/30 11:21:32;;;;;;;1.10;0.73;;;16.50;99.90;;;;;;5094283;28;20407;-70
2021/09/30 11:23:59;;;;;;;1.13;0.80;;;16.20;99.90;;;;;;5094193;28;20444;-70
2021/09/30 11:26:25;;;;;;;1.40;1.03;;;16.10;99.90;;;;;;5094007;28;20839;-70
2021/09/30 11:28:54;;;;;;;0.90;0.70;;;16.20;99.90;;;;;;5094130;28;20450;-70
2021/09/30 11:31:31;;;;;;;1.53;0.63;;;16.10;99.90;;;;;;5093919;28;20789;-70
2021/09/30 11:33:58;;;;;;;1.10;1.00;;;16.50;99.90;;;;;;5094031;28;20398;-70
2021/09/30 11:36:38;;;;;;;1.57;0.80;;;16.20;99.90;;;;;;5093883;28;20487;-70
2021/09/30 11:39:05;;;;;;;0.80;0.80;;;16.10;99.90;;;;;;5093954;28;20413;-70
2021/09/30 11:41:32;;;;;;;1.10;0.90;;;16.10;99.90;;;;;;5093783;28;20434;-69
2021/09/30 11:43:58;;;;;;;1.07;0.80;;;16.00;99.90;;;;;;5093729;28;20496;-70
2021/09/30 11:46:32;;;;;;;1.00;0.90;;;16.00;99.90;;;;;;5093693;28;20993;-70
2021/09/30 11:49:00;;;;;;;0.87;0.70;;;15.80;99.90;;;;;;5093594;28;20192;-69
2021/09/30 11:51:43;;;;;;;0.80;0.67;;;15.70;99.90;;;;;;5093875;28;20400;-69
2021/09/30 11:54:14;;;;;;;1.10;1.00;;;15.50;99.90;;;;;;5093558;28;20400;-70
2021/09/30 11:56:46;;;;;;;0.87;0.70;;;15.20;99.90;;;;;;5093513;28;20433;-70
2021/09/30 11:59:12;;;;;;;1.53;0.93;;;15.20;99.90;;;;;;5093592;28;20819;-70
2021/09/30 12:01:45;;;;;;;0.90;0.80;;;15.30;99.90;;;;;;5093319;28;20446;-70
2021/09/30 12:04:12;;;;;;;0.80;0.80;;;15.40;99.90;;;;;;5093610;28;20406;-70
2021/09/30 12:06:46;;;;;;;0.90;0.80;;;15.50;99.90;;;;;;5093540;28;20421;-70
2021/09/30 12:09:15;;;;;;;1.10;1.00;;;15.40;99.90;;;;;;5093276;28;20535;-70
2021/09/30 12:12:03;;;;;;;0.80;0.80;;;15.40;99.90;;;;;;5093377;28;20406;-70
2021/09/30 12:14:40;;;;;;;2.37;1.10;;;15.40;99.90;;;;;;5093362;28;20394;-72
2021/09/30 12:17:48;;;;;;;0.80;0.80;;;15.40;99.90;;;;;;5088605;28;20998;-70
2021/09/30 12:20:15;;;;;;;1.83;0.93;;;15.50;99.90;;;;;;5083496;28;20404;-71
2021/09/30 12:22:46;;;;;;;0.60;0.60;;;15.80;99.90;;;;;;5092921;28;20412;-70
2021/09/30 12:25:21;;;;;;;1.00;0.90;;;16.00;99.90;;;;;;5092458;28;20420;-71
2021/09/30 12:27:49;;;;;;;0.60;0.60;;;16.20;99.90;;;;;;5075403;28;20819;-70
2021/09/30 12:30:21;;;;;;;1.10;1.00;;;16.40;99.90;;;;;;5092864;28;20556;-71
2021/09/30 12:32:50;;;;;;;1.10;0.73;;;16.50;99.90;;;;;;5092781;28;20455;-71
2021/09/30 12:35:23;;;;;;;1.20;1.10;;;16.50;99.90;;;;;;5092940;28;20473;-70
2021/09/30 12:37:54;;;;;;;1.70;0.80;;;16.50;99.90;;;;;;5092723;28;20400;-70
2021/09/30 12:40:21;;;;;;;0.80;0.70;;;16.70;99.90;;;;;;5093016;28;20413;-71
2021/09/30 12:43:18;;;;;;;0.90;0.90;;;16.90;99.90;;;;;;5092649;28;20461;-71
2021/09/30 12:46:05;;;;;;;3.53;1.47;;;16.80;99.90;;;;;;5091331;28;20962;-71
2021/09/30 12:48:36;;;;;;;3.07;0.90;;;16.80;99.90;;;;;;5092468;28;20493;-71
2021/09/30 12:51:10;;;;;;;0.77;0.77;;;16.90;99.90;;;;;;5092445;28;20463;-70
2021/09/30 12:53:48;;;;;;;1.10;1.00;;;16.80;99.90;;;;;;5092298;28;20965;-69
2021/09/30 12:56:17;;;;;;;2.80;0.90;;;16.80;99.90;;;;;;5092364;28;20491;-71
2021/09/30 12:58:47;;;;;;;1.30;0.70;;;16.80;99.90;;;;;;5092677;28;20413;-70
2021/09/30 13:01:35;;;;;;;1.33;0.70;;;16.60;99.90;;;;;;5092347;28;20423;-70
2021/09/30 13:04:24;;;;;;;1.47;0.70;;;16.30;99.90;;;;;;5092280;28;20402;-70
2021/09/30 13:06:56;;;;;;;1.87;0.87;;;16.40;99.90;;;;;;5092379;28;20459;-70
2021/09/30 13:09:28;;;;;;;1.37;0.70;;;16.70;99.90;;;;;;5091059;28;20461;-70
2021/09/30 13:12:00;;;;;;;1.73;0.80;;;16.80;99.90;;;;;;5092344;28;20405;-70
2021/09/30 13:14:28;;;;;;;1.00;0.90;;;16.60;99.90;;;;;;5092039;28;20402;-70
2021/09/30 13:17:08;;;;;;;1.30;1.13;;;16.80;99.90;;;;;;5092289;28;20883;-70
2021/09/30 13:19:51;;;;;;;1.80;0.70;;;16.40;99.90;;;;;;5092446;28;20418;-71
2021/09/30 13:22:22;;;;;;;0.97;0.80;;;16.40;99.90;;;;;;5092183;28;20410;-70
2021/09/30 13:24:50;;;;;;;1.17;0.90;;;16.20;99.90;;;;;;5092064;28;20798;-70
2021/09/30 13:27:19;;;;;;;1.70;0.90;;;16.30;99.90;;;;;;5092139;28;20417;-70
2021/09/30 13:29:46;;;;;;;1.00;0.83;;;16.50;99.90;;;;;;5091949;28;20822;-70
2021/09/30 13:32:13;;;;;;;1.63;1.07;;;16.60;99.90;;;;;;5090729;28;20520;-70
2021/09/30 13:34:39;;;;;;;2.80;0.90;;;16.70;99.90;;;;;;5091098;28;20409;-70
2021/09/30 13:37:04;;;;;;;2.93;2.60;;;16.90;99.90;;;;;;5091412;28;20411;-70
2021/09/30 13:39:30;;;;;;;0.83;0.77;;;16.60;99.90;;;;;;5091783;28;20176;-70
2021/09/30 13:41:55;;;;;;;1.93;0.80;;;17.00;99.90;;;;;;5091798;28;20180;-70
2021/09/30 13:44:21;;;;;;;0.97;0.87;;;17.00;99.90;;;;;;5091916;28;20570;-70
2021/09/30 13:46:47;;;;;;;0.80;0.80;;;17.10;99.90;;;;;;5091746;28;20185;-70
2021/09/30 13:49:13;;;;;;;0.77;0.70;;;17.40;99.90;;;;;;5091819;28;20185;-70
2021/09/30 13:51:38;;;;;;;0.90;0.70;;;17.30;99.90;;;;;;5091594;28;20396;-70
2021/09/30 13:54:04;;;;;;;1.00;0.70;;;17.00;99.90;;;;;;5091422;28;20524;-70
2021/09/30 13:56:31;;;;;;;1.53;0.93;;;17.00;99.90;;;;;;5091553;28;20239;-70
2021/09/30 13:58:57;;;;;;;0.80;0.70;;;16.90;99.90;;;;;;5091522;28;20674;-70
2021/09/30 14:01:23;;;;;;;0.77;0.70;;;16.80;99.90;;;;;;5091459;28;20436;-70
2021/09/30 14:03:48;;;;;;;1.43;0.70;;;16.70;99.90;;;;;;5091420;28;20402;-70
2021/09/30 14:06:16;;;;;;;0.90;0.70;;;16.70;99.90;;;;;;5091412;28;20508;-70
2021/09/30 14:08:42;;;;;;;1.20;0.90;;;16.90;99.90;;;;;;5091453;28;20557;-70
2021/09/30 14:11:09;;;;;;;1.00;0.80;;;16.60;99.90;;;;;;5091521;28;20402;-70
2021/09/30 14:13:36;;;;;;;1.43;0.87;;;16.60;99.90;;;;;;5091401;28;20410;-70
2021/09/30 14:16:02;;;;;;;0.70;0.70;;;16.60;99.90;;;;;;5091524;28;20975;-70
2021/09/30 14:18:28;;;;;;;1.33;0.80;;;16.50;99.90;;;;;;5091427;28;20947;-70
2021/09/30 14:20:54;;;;;;;1.83;0.77;;;16.60;99.90;;;;;;5091267;28;20543;-70
2021/09/30 14:23:22;;;;;;;1.00;0.87;;;16.70;99.90;;;;;;5091186;28;20177;-70
2021/09/30 14:25:47;;;;;;;0.70;0.70;;;16.50;99.90;;;;;;5091372;28;20483;-71
2021/09/30 14:28:13;;;;;;;0.60;0.60;;;16.30;99.90;;;;;;5091295;28;20429;-71
2021/09/30 14:30:38;;;;;;;0.90;0.80;;;16.30;99.90;;;;;;5091356;28;20174;-71
2021/09/30 14:33:04;;;;;;;1.57;1.00;;;16.40;99.90;;;;;;5091375;28;20221;-71
2021/09/30 14:35:29;;;;;;;1.27;0.80;;;16.50;99.90;;;;;;5091216;28;20223;-69
2021/09/30 14:37:55;;;;;;;0.70;0.60;;;16.60;99.90;;;;;;5091210;28;20563;-69
2021/09/30 14:40:20;;;;;;;1.17;0.80;;;16.20;99.90;;;;;;5091328;28;20630;-69
2021/09/30 14:42:46;;;;;;;1.00;0.80;;;16.10;99.90;;;;;;5091296;28;20251;-69
2021/09/30 14:45:11;;;;;;;1.07;0.90;;;16.00;99.90;;;;;;5091018;28;20248;-69
2021/09/30 14:47:37;;;;;;;1.40;0.93;;;16.00;99.90;;;;;;5091186;28;20167;-69
2021/09/30 14:50:03;;;;;;;0.80;0.80;;;16.00;99.90;;;;;;5094444;28;20190;-69
2021/09/30 14:52:28;;;;;;;1.90;1.33;;;16.00;99.90;;;;;;5094605;28;20572;-69
2021/09/30 14:54:53;;;;;;;0.80;0.70;;;15.90;99.90;;;;;;5094975;28;20406;-69
2021/09/30 14:57:19;;;;;;;0.80;0.80;;;15.80;99.90;;;;;;5094870;28;20171;-69
2021/09/30 14:59:44;;;;;;;2.10;0.87;;;15.90;99.90;;;;;;5094760;28;20201;-70
2021/09/30 15:02:10;;;;;;;1.37;0.77;;;15.90;99.90;;;;;;5094856;28;20171;-70
2021/09/30 15:04:37;;;;;;;0.80;0.80;;;15.90;99.90;;;;;;5094947;28;20649;-70
2021/09/30 15:07:03;;;;;;;1.90;0.97;;;16.00;99.90;;;;;;5094858;28;20567;-70
2021/09/30 15:09:29;;;;;;;0.70;0.70;;;15.90;99.90;;;;;;5095129;28;20452;-70
2021/09/30 15:11:55;;;;;;;0.87;0.70;;;15.90;99.90;;;;;;5095040;28;20413;-72
2021/09/30 15:14:20;;;;;;;2.60;0.80;;;16.00;99.90;;;;;;5094680;28;20516;-71
2021/09/30 15:19:49;;;;;;;0.70;0.67;;;15.80;99.90;;;;;;5093135;28;20177;-71
2021/09/30 15:22:14;;;;;;;1.73;0.90;;;15.70;99.90;;;;;;5094369;28;20539;-71
2021/09/30 15:24:40;;;;;;;1.40;0.80;;;15.60;99.90;;;;;;5094208;28;20950;-71
2021/09/30 15:27:06;;;;;;;1.30;0.90;;;15.50;99.90;;;;;;5094312;28;20170;-71
2021/09/30 15:29:32;;;;;;;0.83;0.70;;;15.50;99.90;;;;;;5094298;28;20196;-71
2021/09/30 15:31:58;;;;;;;0.97;0.83;;;15.40;99.90;;;;;;5094117;28;20401;-71
2021/09/30 15:34:23;;;;;;;2.67;0.80;;;15.40;99.90;;;;;;5094250;28;20170;-71